createdAt,value
2018-08-23T00:00:56.729Z,94.25
2018-08-23T00:04:06.243Z,94.65
2018-08-23T00:07:15.259Z,94.60
2018-08-23T00:10:19.506Z,95.79
2018-08-23T00:13:24.027Z,95.97
2018-08-23T00:16:35.158Z,96.53
2018-08-23T00:19:39.416Z,96.65
2018-08-23T00:22:43.912Z,95.97
2018-08-23T00:25:48.131Z,96.25
2018-08-23T00:28:52.395Z,97.16
2018-08-23T00:31:59.383Z,97.16
2018-08-23T00:35:03.643Z,96.08
2018-08-23T00:38:08.527Z,96.22
2018-08-23T00:41:12.765Z,95.72
2018-08-23T00:44:17.004Z,95.88
2018-08-23T00:47:23.498Z,96.07
2018-08-23T00:50:48.945Z,95.37
2018-08-23T00:54:05.060Z,95.22
2018-08-23T00:57:09.254Z,95.84
2018-08-23T01:00:18.018Z,95.83
2018-08-23T01:03:22.305Z,96.05
2018-08-23T01:06:43.244Z,96.49
2018-08-23T01:09:47.506Z,97.11
2018-08-23T01:13:00.657Z,97.12
2018-08-23T01:16:04.913Z,98.47
2018-08-23T01:20:16.969Z,98.40
2018-08-23T01:23:21.394Z,98.21
2018-08-23T01:26:25.617Z,99.06
2018-08-23T01:29:31.389Z,98.71
2018-08-23T01:32:35.613Z,99.55
2018-08-23T01:35:41.885Z,99.74
2018-08-23T01:38:46.113Z,99.30
2018-08-23T01:41:50.375Z,99.33
2018-08-23T01:44:54.596Z,99.65
2018-08-23T01:47:58.819Z,99.62
2018-08-23T01:51:03.089Z,99.86
2018-08-23T01:54:07.338Z,100.00
2018-08-23T01:57:11.581Z,99.51
2018-08-23T02:00:20.036Z,100.00
2018-08-23T02:03:24.266Z,99.58
2018-08-23T02:06:35.046Z,99.60
2018-08-23T02:09:39.290Z,100.00
2018-08-23T02:12:48.874Z,99.78
2018-08-23T02:15:53.113Z,99.68
2018-08-23T02:18:57.329Z,99.88
2018-08-23T02:22:01.559Z,99.65
2018-08-23T02:25:06.380Z,100.00
2018-08-23T02:28:11.697Z,100.00
2018-08-23T02:31:16.011Z,99.67
2018-08-23T02:34:20.277Z,99.68
2018-08-23T02:37:24.818Z,99.01
2018-08-23T02:40:29.102Z,99.51
2018-08-23T02:43:33.345Z,99.38
2018-08-23T02:46:37.600Z,99.56
2018-08-23T02:49:44.404Z,100.00
2018-08-23T02:52:48.697Z,100.00
2018-08-23T02:55:53.858Z,100.00
2018-08-23T02:59:02.282Z,100.00
2018-08-23T03:02:11.468Z,100.00
2018-08-23T03:05:19.864Z,100.00
2018-08-23T03:08:41.237Z,100.00
2018-08-23T03:11:48.794Z,100.00
2018-08-23T03:14:53.358Z,100.00
2018-08-23T03:17:57.731Z,100.00
2018-08-23T03:21:07.350Z,100.00
2018-08-23T03:24:11.845Z,100.00
2018-08-23T03:27:16.154Z,100.00
2018-08-23T03:30:20.935Z,100.00
2018-08-23T03:33:25.303Z,100.00
2018-08-23T03:36:29.654Z,100.00
2018-08-23T03:39:33.905Z,100.00
2018-08-23T03:42:38.181Z,100.00
2018-08-23T03:45:42.433Z,100.00
2018-08-23T03:48:51.790Z,100.00
2018-08-23T03:51:56.062Z,100.00
2018-08-23T03:55:01.636Z,100.00
2018-08-23T03:58:05.994Z,100.00
2018-08-23T04:01:14.257Z,100.00
2018-08-23T04:04:18.528Z,100.00
2018-08-23T04:07:22.789Z,100.00
2018-08-23T04:10:27.062Z,100.00
2018-08-23T04:13:31.339Z,100.00
2018-08-23T04:16:35.601Z,100.00
2018-08-23T04:19:43.161Z,100.00
2018-08-23T04:22:47.523Z,100.00
2018-08-23T04:25:51.723Z,100.00
2018-08-23T04:28:55.993Z,100.00
2018-08-23T04:32:00.361Z,100.00
2018-08-23T04:35:12.212Z,100.00
2018-08-23T04:38:16.470Z,100.00
2018-08-23T04:41:20.727Z,100.00
2018-08-23T04:44:25.011Z,100.00
2018-08-23T04:47:29.286Z,100.00
2018-08-23T04:50:33.601Z,100.00
2018-08-23T04:53:37.854Z,100.00
2018-08-23T04:56:42.121Z,100.00
2018-08-23T04:59:46.387Z,100.00
2018-08-23T05:02:50.726Z,100.00
2018-08-23T05:05:54.981Z,100.00
2018-08-23T05:08:59.233Z,100.00
2018-08-23T05:12:03.485Z,100.00
2018-08-23T05:15:07.761Z,100.00
2018-08-23T05:18:12.064Z,100.00
2018-08-23T05:21:16.345Z,100.00
2018-08-23T05:24:23.809Z,100.00
2018-08-23T05:27:28.069Z,100.00
2018-08-23T05:30:32.320Z,100.00
2018-08-23T05:33:36.559Z,100.00
2018-08-23T05:36:40.837Z,100.00
2018-08-23T05:39:52.870Z,100.00
2018-08-23T05:42:57.402Z,100.00
2018-08-23T05:46:02.310Z,99.99
2018-08-23T05:49:06.998Z,100.00
2018-08-23T05:52:11.261Z,99.96
2018-08-23T05:55:15.557Z,100.00
2018-08-23T05:58:23.801Z,99.50
2018-08-23T06:01:28.066Z,99.83
2018-08-23T06:04:42.293Z,98.88
2018-08-23T06:07:46.573Z,98.68
2018-08-23T06:10:56.282Z,99.14
2018-08-23T06:14:00.562Z,98.63
2018-08-23T06:17:05.525Z,98.65
2018-08-23T06:20:09.805Z,98.55
2018-08-23T06:23:14.452Z,98.58
2018-08-23T06:26:18.678Z,97.84
2018-08-23T06:29:26.365Z,97.98
2018-08-23T06:32:30.613Z,96.46
2018-08-23T06:35:38.143Z,96.43
2018-08-23T06:38:46.453Z,96.58
2018-08-23T06:41:53.712Z,95.37
2018-08-23T06:44:57.925Z,94.63
2018-08-23T06:48:03.778Z,95.14
2018-08-23T06:51:11.257Z,95.05
2018-08-23T06:54:15.517Z,94.61
2018-08-23T06:57:19.775Z,94.47
2018-08-23T07:00:26.259Z,94.37
2018-08-23T07:03:30.536Z,94.31
2018-08-23T07:06:36.260Z,92.67
2018-08-23T07:09:42.364Z,90.92
2018-08-23T07:12:46.619Z,90.13
2018-08-23T07:15:54.972Z,90.97
2018-08-23T07:18:59.199Z,90.29
2018-08-23T07:22:03.657Z,89.23
2018-08-23T07:25:14.122Z,89.83
2018-08-23T07:28:18.342Z,88.50
2018-08-23T07:31:22.632Z,88.20
2018-08-23T07:34:26.844Z,88.26
2018-08-23T07:37:33.361Z,87.72
2018-08-23T07:40:37.602Z,87.39
2018-08-23T07:43:41.822Z,88.25
2018-08-23T07:46:46.054Z,88.25
2018-08-23T07:49:51.304Z,88.69
2018-08-23T07:52:55.987Z,89.01
2018-08-23T07:56:18.856Z,89.08
2018-08-23T07:59:23.174Z,88.87
2018-08-23T08:02:28.444Z,89.58
2018-08-23T08:05:34.761Z,89.91
2018-08-23T08:08:42.614Z,87.88
2018-08-23T08:11:52.878Z,88.27
2018-08-23T08:14:57.644Z,89.54
2018-08-23T08:18:18.430Z,88.12
2018-08-23T08:21:22.689Z,88.39
2018-08-23T08:24:26.941Z,87.52
2018-08-23T08:27:31.291Z,87.09
2018-08-23T08:30:42.517Z,86.43
2018-08-23T08:33:46.750Z,86.26
2018-08-23T08:36:51.008Z,86.33
2018-08-23T08:39:55.289Z,85.72
2018-08-23T08:42:59.521Z,85.82
2018-08-23T08:46:03.782Z,83.20
2018-08-23T08:49:08.017Z,82.62
2018-08-23T08:52:12.263Z,80.46
2018-08-23T08:55:17.677Z,79.50
2018-08-23T08:58:21.909Z,78.07
2018-08-23T09:01:27.194Z,78.81
2018-08-23T09:04:35.345Z,78.56
2018-08-23T09:07:41.426Z,78.72
2018-08-23T09:10:45.685Z,78.23
2018-08-23T09:13:50.265Z,79.17
2018-08-23T09:16:54.749Z,77.83
2018-08-23T09:20:04.626Z,74.50
2018-08-23T09:23:08.893Z,75.19
2018-08-23T09:26:13.127Z,73.54
2018-08-23T09:29:34.512Z,76.40
2018-08-23T09:32:38.897Z,78.51
2018-08-23T09:35:43.154Z,77.11
2018-08-23T09:38:47.433Z,75.89
2018-08-23T09:41:51.657Z,71.06
2018-08-23T09:45:07.597Z,71.88
2018-08-23T09:48:11.873Z,74.16
2018-08-23T09:51:21.795Z,76.07
2018-08-23T09:54:27.977Z,77.14
2018-08-23T09:57:32.265Z,78.31
2018-08-23T10:00:42.629Z,79.17
2018-08-23T10:03:52.177Z,79.89
2018-08-23T10:07:02.848Z,81.08
2018-08-23T10:10:12.388Z,81.00
2018-08-23T10:13:21.933Z,80.89
2018-08-23T10:16:31.489Z,80.25
2018-08-23T10:19:41.037Z,79.79
2018-08-23T10:22:46.274Z,79.92
2018-08-23T10:25:51.743Z,80.20
2018-08-23T10:28:56.154Z,81.55
2018-08-23T10:32:00.472Z,81.18
2018-08-23T10:35:04.790Z,82.24
2018-08-23T10:38:09.145Z,81.56
2018-08-23T10:41:13.433Z,81.77
2018-08-23T10:44:17.747Z,81.81
2018-08-23T10:48:29.098Z,81.59
2018-08-23T10:51:33.382Z,81.88
2018-08-23T10:54:37.642Z,82.56
2018-08-23T10:57:41.948Z,81.59
2018-08-23T11:00:46.193Z,82.08
2018-08-23T11:03:50.428Z,81.95
2018-08-23T11:06:58.997Z,80.43
2018-08-23T11:10:08.395Z,81.10
2018-08-23T11:13:17.965Z,81.14
2018-08-23T11:16:27.513Z,80.43
2018-08-23T11:19:36.995Z,78.51
2018-08-23T11:22:41.249Z,79.18
2018-08-23T11:25:45.505Z,77.81
2018-08-23T11:28:50.421Z,78.22
2018-08-23T11:31:54.668Z,78.05
2018-08-23T11:34:58.959Z,77.67
2018-08-23T11:38:03.267Z,78.41
2018-08-23T11:41:07.509Z,78.13
2018-08-23T11:44:11.750Z,77.58
2018-08-23T11:47:15.984Z,76.59
2018-08-23T11:50:20.225Z,76.49
2018-08-23T11:53:24.562Z,76.50
2018-08-23T11:56:28.723Z,75.67
2018-08-23T11:59:32.965Z,74.80
2018-08-23T12:02:37.212Z,74.98
2018-08-23T12:05:41.452Z,73.29
2018-08-23T12:08:45.791Z,74.57
2018-08-23T12:11:50.030Z,73.50
2018-08-23T12:14:55.188Z,73.24
2018-08-23T12:17:59.694Z,73.80
2018-08-23T12:21:04.082Z,73.22
2018-08-23T12:24:08.306Z,72.42
2018-08-23T12:27:12.573Z,72.55
2018-08-23T12:30:16.830Z,72.27
2018-08-23T12:33:21.112Z,71.25
2018-08-23T12:36:30.479Z,71.97
2018-08-23T12:39:40.113Z,73.43
2018-08-23T12:42:47.458Z,73.86
2018-08-23T12:45:51.719Z,74.53
2018-08-23T12:48:58.804Z,74.67
2018-08-23T12:52:03.085Z,75.71
2018-08-23T12:55:07.443Z,74.63
2018-08-23T12:58:13.311Z,74.32
2018-08-23T13:01:17.808Z,75.46
2018-08-23T13:04:22.131Z,72.95
2018-08-23T13:07:26.394Z,72.10
2018-08-23T13:10:30.765Z,70.52
2018-08-23T13:13:35.049Z,69.39
2018-08-23T13:16:39.329Z,70.98
2018-08-23T13:19:43.627Z,69.71
2018-08-23T13:22:47.947Z,70.66
2018-08-23T13:25:55.650Z,70.51
2018-08-23T13:28:59.911Z,71.08
2018-08-23T13:32:04.242Z,72.04
2018-08-23T13:35:08.494Z,70.12
2018-08-23T13:38:12.765Z,70.94
2018-08-23T13:41:17.101Z,69.94
2018-08-23T13:44:21.370Z,70.40
2018-08-23T13:47:25.656Z,71.59
2018-08-23T13:50:29.928Z,72.71
2018-08-23T13:53:34.209Z,72.57
2018-08-23T13:56:38.805Z,73.23
2018-08-23T13:59:43.301Z,72.68
2018-08-23T14:02:47.635Z,73.96
2018-08-23T14:05:52.241Z,73.60
2018-08-23T14:08:56.554Z,73.78
2018-08-23T14:12:00.785Z,74.50
2018-08-23T14:15:05.054Z,74.42
2018-08-23T14:18:09.868Z,74.52
2018-08-23T14:21:14.145Z,74.39
2018-08-23T14:24:19.979Z,74.80
2018-08-23T14:27:24.409Z,75.13
2018-08-23T14:30:28.766Z,75.75
2018-08-23T14:33:33.157Z,75.89
2018-08-23T14:36:38.445Z,76.38
2018-08-23T14:39:43.101Z,76.89
2018-08-23T14:42:47.557Z,77.12
2018-08-23T14:45:52.078Z,76.49
2018-08-23T14:48:56.926Z,77.31
2018-08-23T14:52:01.648Z,77.50
2018-08-23T14:55:06.451Z,75.98
2018-08-23T14:58:11.891Z,76.35
2018-08-23T15:01:16.198Z,76.55
2018-08-23T15:04:20.558Z,75.70
2018-08-23T15:07:24.801Z,75.73
2018-08-23T15:10:29.123Z,75.52
2018-08-23T15:13:33.390Z,75.55
2018-08-23T15:16:37.685Z,76.15
2018-08-23T15:19:41.933Z,74.68
2018-08-23T15:25:49.585Z,75.52
2018-08-23T15:28:53.886Z,75.88
2018-08-23T15:31:58.169Z,74.87
2018-08-23T15:35:02.570Z,75.12
2018-08-23T15:38:07.409Z,76.27
2018-08-23T15:41:11.701Z,76.71
2018-08-23T15:44:15.968Z,76.13
2018-08-23T15:47:20.334Z,76.60
2018-08-23T15:50:25.484Z,76.53
2018-08-23T15:53:29.773Z,75.63
2018-08-23T15:56:34.076Z,77.04
2018-08-23T15:59:38.328Z,75.99
2018-08-23T16:02:42.585Z,75.58
2018-08-23T16:05:46.846Z,76.10
2018-08-23T16:08:51.128Z,76.49
2018-08-23T16:11:55.357Z,76.08
2018-08-23T16:14:59.630Z,76.10
2018-08-23T16:19:11.853Z,76.76
2018-08-23T16:22:16.095Z,76.96
2018-08-23T16:25:20.373Z,76.81
2018-08-23T16:28:24.641Z,76.97
2018-08-23T16:31:28.888Z,77.18
2018-08-23T16:34:33.189Z,77.34
2018-08-23T16:37:37.545Z,77.84
2018-08-23T16:40:41.782Z,77.59
2018-08-23T16:43:46.005Z,77.68
2018-08-23T16:46:50.296Z,76.81
2018-08-23T16:49:54.597Z,77.10
2018-08-23T16:52:58.901Z,77.78
2018-08-23T16:56:03.174Z,77.26
2018-08-23T16:59:07.413Z,77.54
2018-08-23T17:02:11.652Z,77.35
2018-08-23T17:05:15.892Z,78.39
2018-08-23T17:08:20.180Z,78.67
2018-08-23T17:11:24.453Z,78.97
2018-08-23T17:14:28.773Z,80.02
2018-08-23T17:17:34.325Z,79.49
2018-08-23T17:20:38.597Z,80.38
2018-08-23T17:23:42.896Z,80.33
2018-08-23T17:26:47.323Z,80.45
2018-08-23T17:29:51.750Z,80.44
2018-08-23T17:32:56.055Z,80.02
2018-08-23T17:36:00.470Z,79.53
2018-08-23T17:39:06.469Z,80.31
2018-08-23T17:42:10.789Z,79.98
2018-08-23T17:45:15.481Z,80.17
2018-08-23T17:48:20.477Z,80.19
2018-08-23T17:51:26.059Z,80.57
2018-08-23T17:54:31.082Z,79.85
2018-08-23T17:57:35.461Z,80.22
2018-08-23T18:00:40.051Z,80.72
2018-08-23T18:03:44.620Z,81.21
2018-08-23T18:06:49.026Z,82.02
2018-08-23T18:09:53.386Z,82.09
2018-08-23T18:12:57.868Z,82.55
2018-08-23T18:16:07.473Z,83.03
2018-08-23T18:19:12.306Z,83.24
2018-08-23T18:22:16.853Z,82.79
2018-08-23T18:25:21.153Z,82.52
2018-08-23T18:28:25.373Z,82.17
2018-08-23T18:31:29.651Z,82.51
2018-08-23T18:34:33.953Z,82.56
2018-08-23T18:37:38.621Z,83.09
2018-08-23T18:40:42.834Z,82.88
2018-08-23T18:43:47.070Z,83.18
2018-08-23T18:46:51.341Z,82.94
2018-08-23T18:49:55.609Z,83.92
2018-08-23T18:52:59.905Z,83.72
2018-08-23T18:56:04.764Z,83.59
2018-08-23T18:59:09.050Z,84.03
2018-08-23T19:02:13.293Z,85.19
2018-08-23T19:05:17.568Z,84.71
2018-08-23T19:08:21.835Z,85.82
2018-08-23T19:11:26.143Z,85.60
2018-08-23T19:14:30.458Z,86.60
2018-08-23T19:17:36.276Z,86.34
2018-08-23T19:20:40.601Z,87.81
2018-08-23T19:23:44.872Z,90.46
2018-08-23T19:26:49.111Z,91.91
2018-08-23T19:29:53.338Z,92.43
2018-08-23T19:32:57.569Z,93.43
2018-08-23T19:36:01.878Z,93.67
2018-08-23T19:39:10.362Z,94.64
2018-08-23T19:42:14.614Z,95.27
2018-08-23T19:45:18.865Z,95.56
2018-08-23T19:48:23.162Z,96.65
2018-08-23T19:51:27.405Z,97.25
2018-08-23T19:54:31.637Z,96.55
2018-08-23T19:57:35.864Z,97.27
2018-08-23T20:00:40.107Z,97.27
2018-08-23T20:03:44.365Z,96.96
2018-08-23T20:06:48.695Z,96.43
2018-08-23T20:09:52.868Z,96.43
2018-08-23T20:12:57.116Z,97.17
2018-08-23T20:16:01.352Z,96.79
2018-08-23T20:19:06.002Z,97.03
2018-08-23T20:22:10.221Z,97.00
2018-08-23T20:25:14.491Z,96.10
2018-08-23T20:28:19.097Z,96.65
2018-08-23T20:31:23.369Z,96.40
2018-08-23T20:34:27.644Z,96.94
2018-08-23T20:37:31.858Z,96.91
2018-08-23T20:40:36.114Z,97.37
2018-08-23T20:43:40.329Z,98.32
2018-08-23T20:46:44.611Z,97.99
2018-08-23T20:49:48.856Z,98.33
2018-08-23T20:52:53.115Z,98.94
2018-08-23T20:55:57.353Z,99.23
2018-08-23T20:59:01.623Z,99.50
2018-08-23T21:02:05.870Z,99.97
2018-08-23T21:05:10.113Z,100.00
2018-08-23T21:08:14.365Z,100.00
2018-08-23T21:11:18.604Z,99.97
2018-08-23T21:14:22.844Z,99.95
2018-08-23T21:17:27.093Z,100.00
2018-08-23T21:20:31.333Z,100.00
2018-08-23T21:23:35.596Z,100.00
2018-08-23T21:26:39.841Z,100.00
2018-08-23T21:29:44.070Z,100.00
2018-08-23T21:32:48.302Z,100.00
2018-08-23T21:35:52.558Z,100.00
2018-08-23T21:38:56.758Z,98.68
2018-08-23T21:42:00.985Z,98.75
2018-08-23T21:45:05.296Z,99.64
2018-08-23T21:48:09.566Z,100.00
2018-08-23T21:51:13.806Z,100.00
2018-08-23T21:54:18.066Z,100.00
2018-08-23T21:57:22.479Z,100.00
2018-08-23T22:00:26.805Z,100.00
2018-08-23T22:03:31.028Z,100.00
2018-08-23T22:06:35.285Z,100.00
2018-08-23T22:09:39.558Z,100.00
2018-08-23T22:12:43.809Z,100.00
2018-08-23T22:15:48.837Z,100.00
2018-08-23T22:18:53.068Z,100.00
2018-08-23T22:21:57.280Z,100.00
2018-08-23T22:25:01.561Z,100.00
2018-08-23T22:28:06.328Z,100.00
2018-08-23T22:31:10.582Z,100.00
2018-08-23T22:34:14.824Z,100.00
2018-08-23T22:37:19.045Z,100.00
2018-08-23T22:40:23.276Z,100.00
2018-08-23T22:43:27.497Z,100.00
2018-08-23T22:46:31.733Z,100.00
2018-08-23T22:49:35.995Z,100.00
2018-08-23T22:52:40.211Z,100.00
2018-08-23T22:55:44.440Z,100.00
2018-08-23T22:58:48.704Z,100.00
2018-08-23T23:01:52.949Z,100.00
2018-08-23T23:04:57.168Z,100.00
2018-08-23T23:08:06.645Z,100.00
2018-08-23T23:11:10.860Z,100.00
2018-08-23T23:14:15.113Z,100.00
2018-08-23T23:17:19.344Z,100.00
2018-08-23T23:20:23.601Z,100.00
2018-08-23T23:23:27.821Z,100.00
2018-08-23T23:26:32.052Z,100.00
2018-08-23T23:29:36.437Z,100.00
2018-08-23T23:32:40.683Z,100.00
2018-08-23T23:35:44.906Z,100.00
2018-08-23T23:38:49.133Z,100.00
2018-08-23T23:41:53.349Z,100.00
2018-08-23T23:44:57.566Z,100.00
2018-08-23T23:48:01.793Z,100.00
2018-08-23T23:51:06.376Z,100.00
2018-08-23T23:54:10.600Z,100.00
2018-08-23T23:57:14.820Z,100.00
